Time;durP1;ratioP1;P1;durP2;ratioP2;P2;SDS_P1;SDS_P2;PMS_P1;PMS_P2;Temp;Humidity;BMP_temperature;BMP_pressure;BME280_temperature;BME280_humidity;BME280_pressure;Samples;Min_cycle;Max_cycle;Signal;HPM_P1;HPM_P2
2021/09/11 00:00:20;;;;;;;16.75;14.85;;;17.80;99.90;;;;;;4915319;29;20028;-77
2021/09/11 00:02:47;;;;;;;16.75;15.13;;;17.80;99.90;;;;;;4914501;29;20115;-76
2021/09/11 00:05:14;;;;;;;18.50;14.00;;;17.70;99.90;;;;;;4914291;29;20028;-76
2021/09/11 00:07:40;;;;;;;15.95;14.40;;;17.70;99.90;;;;;;4915078;29;20024;-76
2021/09/11 00:10:07;;;;;;;17.50;15.77;;;17.70;99.90;;;;;;4914776;29;20034;-77
2021/09/11 00:12:35;;;;;;;16.33;14.80;;;17.60;99.90;;;;;;4913650;29;20040;-77
2021/09/11 00:15:05;;;;;;;20.42;16.00;;;17.60;99.90;;;;;;4914690;29;20056;-76
2021/09/11 00:17:31;;;;;;;17.50;15.70;;;17.60;99.90;;;;;;4914891;29;20111;-75
2021/09/11 00:19:56;;;;;;;17.63;15.82;;;17.60;99.90;;;;;;4915194;29;20516;-76
2021/09/11 00:22:22;;;;;;;18.63;16.77;;;17.60;99.90;;;;;;4916121;29;20354;-76
2021/09/11 00:24:47;;;;;;;19.75;16.60;;;17.60;99.90;;;;;;4914662;29;20437;-74
2021/09/11 00:27:13;;;;;;;17.20;15.70;;;17.60;99.90;;;;;;4915017;29;20440;-76
2021/09/11 00:29:39;;;;;;;17.35;15.15;;;17.60;99.90;;;;;;4914711;29;20469;-76
2021/09/11 00:32:05;;;;;;;16.58;14.98;;;17.60;99.90;;;;;;4914345;29;20028;-76
2021/09/11 00:34:30;;;;;;;17.52;15.73;;;17.60;99.90;;;;;;4915265;29;20052;-77
2021/09/11 00:36:58;;;;;;;17.65;15.85;;;17.50;99.90;;;;;;4914096;29;20076;-76
2021/09/11 00:39:23;;;;;;;18.90;16.98;;;17.50;99.90;;;;;;4914438;29;20473;-76
2021/09/11 00:41:50;;;;;;;18.20;16.40;;;17.50;99.90;;;;;;4914956;29;20024;-76
2021/09/11 00:44:16;;;;;;;19.42;16.50;;;17.40;99.90;;;;;;4915599;29;20511;-75
2021/09/11 00:46:41;;;;;;;18.35;16.60;;;17.40;99.90;;;;;;4913573;29;20083;-76
2021/09/11 00:49:07;;;;;;;16.75;15.25;;;17.40;99.90;;;;;;4914144;29;20020;-77
2021/09/11 00:51:33;;;;;;;17.05;15.35;;;17.40;99.90;;;;;;4914386;29;20091;-76
2021/09/11 00:54:00;;;;;;;17.33;15.63;;;17.50;99.90;;;;;;4913311;29;20032;-76
2021/09/11 00:56:27;;;;;;;17.55;15.73;;;17.40;99.90;;;;;;4915315;29;20023;-76
2021/09/11 00:58:53;;;;;;;16.92;15.25;;;17.40;99.90;;;;;;4913912;29;20025;-76
2021/09/11 01:01:18;;;;;;;16.42;14.77;;;17.40;99.90;;;;;;4914615;29;20071;-76
2021/09/11 01:03:44;;;;;;;17.60;15.80;;;17.30;99.90;;;;;;4914309;29;20476;-76
2021/09/11 01:06:10;;;;;;;16.08;14.38;;;17.30;99.90;;;;;;4915203;29;20396;-76
2021/09/11 01:08:39;;;;;;;15.88;14.35;;;17.40;99.90;;;;;;4913780;29;20020;-77
2021/09/11 01:11:04;;;;;;;15.35;13.90;;;17.40;99.90;;;;;;4913369;29;20024;-77
2021/09/11 01:13:32;;;;;;;22.10;14.98;;;17.40;99.90;;;;;;4914089;29;20051;-78
2021/09/11 01:15:59;;;;;;;16.75;14.43;;;17.40;99.90;;;;;;4913208;29;20106;-75
2021/09/11 01:18:25;;;;;;;15.27;13.68;;;17.40;99.90;;;;;;4914103;29;20028;-75
2021/09/11 01:20:51;;;;;;;15.73;13.85;;;17.40;99.90;;;;;;4913902;29;20028;-75
2021/09/11 01:23:17;;;;;;;17.92;13.23;;;17.40;99.90;;;;;;4913385;29;20024;-76
2021/09/11 01:25:42;;;;;;;16.25;13.38;;;17.30;99.90;;;;;;4914997;29;20035;-76
2021/09/11 01:28:08;;;;;;;14.85;13.20;;;17.20;99.90;;;;;;4913512;29;20055;-75
2021/09/11 01:30:33;;;;;;;15.10;13.55;;;17.20;99.90;;;;;;4913308;29;20024;-76
2021/09/11 01:32:59;;;;;;;15.65;12.90;;;17.10;99.90;;;;;;4913703;29;20039;-76
2021/09/11 01:35:25;;;;;;;14.25;12.75;;;17.10;99.90;;;;;;4914335;29;20059;-80
2021/09/11 01:37:50;;;;;;;14.38;12.70;;;17.00;99.90;;;;;;4912819;29;20477;-79
2021/09/11 01:40:16;;;;;;;12.90;11.60;;;17.00;99.90;;;;;;4913978;29;20389;-78
2021/09/11 01:42:42;;;;;;;15.00;12.73;;;17.00;99.90;;;;;;4913807;29;20028;-78
2021/09/11 01:45:11;;;;;;;17.80;12.57;;;16.90;99.90;;;;;;4912934;29;20027;-77
2021/09/11 01:47:40;;;;;;;15.98;13.27;;;16.90;99.90;;;;;;4913829;29;20768;-77
2021/09/11 01:50:08;;;;;;;14.82;12.60;;;16.90;99.90;;;;;;4912983;29;20028;-78
2021/09/11 01:52:33;;;;;;;17.77;13.25;;;16.80;99.90;;;;;;4913879;29;20511;-78
2021/09/11 01:54:59;;;;;;;15.70;14.10;;;16.80;99.90;;;;;;4913553;29;20024;-78
2021/09/11 01:57:25;;;;;;;14.75;12.82;;;16.80;99.90;;;;;;4914295;29;20469;-80
2021/09/11 01:59:51;;;;;;;15.35;12.50;;;16.70;99.90;;;;;;4914506;29;20068;-77
2021/09/11 02:02:16;;;;;;;18.23;12.30;;;16.70;99.90;;;;;;4913837;29;20047;-77
2021/09/11 02:04:42;;;;;;;13.80;11.93;;;16.70;99.90;;;;;;4913338;29;20024;-78
2021/09/11 02:07:08;;;;;;;14.85;12.13;;;16.60;99.90;;;;;;4915654;29;20055;-79
2021/09/11 02:09:35;;;;;;;16.08;12.77;;;16.60;99.90;;;;;;4918530;29;20028;-77
2021/09/11 02:12:01;;;;;;;14.20;12.20;;;16.60;99.90;;;;;;4916211;29;20036;-78
2021/09/11 02:14:27;;;;;;;15.35;13.25;;;16.60;99.90;;;;;;4918189;29;20552;-77
2021/09/11 02:16:52;;;;;;;14.55;13.13;;;16.50;99.90;;;;;;4916531;29;20075;-78
2021/09/11 02:19:18;;;;;;;14.60;12.35;;;16.50;99.90;;;;;;4916454;29;20024;-77
2021/09/11 02:21:44;;;;;;;14.77;13.13;;;16.50;99.90;;;;;;4918167;29;20035;-77
2021/09/11 02:24:09;;;;;;;14.52;12.90;;;16.40;99.90;;;;;;4916807;29;20024;-77
2021/09/11 02:26:36;;;;;;;15.35;12.95;;;16.40;99.90;;;;;;4916373;29;20477;-77
2021/09/11 02:29:03;;;;;;;16.50;13.02;;;16.40;99.90;;;;;;4916345;29;20493;-76
2021/09/11 02:31:29;;;;;;;14.93;12.98;;;16.40;99.90;;;;;;4916360;29;20469;-77
2021/09/11 02:33:54;;;;;;;14.80;12.95;;;16.40;99.90;;;;;;4915651;29;20032;-77
2021/09/11 02:36:20;;;;;;;15.43;12.45;;;16.30;99.90;;;;;;4916659;29;20024;-77
2021/09/11 02:38:46;;;;;;;14.55;11.38;;;16.30;99.90;;;;;;4916395;29;20385;-77
2021/09/11 02:41:12;;;;;;;22.23;12.13;;;16.30;99.90;;;;;;4917070;29;20027;-77
2021/09/11 02:43:37;;;;;;;21.02;13.13;;;16.20;99.90;;;;;;4918325;29;20036;-77
2021/09/11 02:46:03;;;;;;;12.75;10.95;;;16.30;99.90;;;;;;4916084;29;20079;-77
2021/09/11 02:48:29;;;;;;;14.23;12.65;;;16.20;99.90;;;;;;4916927;29;20036;-78
2021/09/11 02:50:54;;;;;;;16.67;11.60;;;16.20;99.90;;;;;;4916098;29;20024;-77
2021/09/11 02:53:20;;;;;;;13.35;11.95;;;16.20;99.90;;;;;;4915705;29;20547;-77
2021/09/11 02:55:46;;;;;;;17.30;12.57;;;16.20;99.90;;;;;;4916217;29;20115;-78
2021/09/11 02:58:11;;;;;;;14.00;12.10;;;16.10;99.90;;;;;;4916246;29;20115;-77
2021/09/11 03:00:37;;;;;;;14.05;11.60;;;16.10;99.90;;;;;;4915320;29;20025;-76
2021/09/11 03:03:02;;;;;;;16.55;12.55;;;16.10;99.90;;;;;;4916000;29;20042;-76
2021/09/11 03:05:28;;;;;;;14.50;12.48;;;16.10;99.90;;;;;;4916356;29;20032;-76
2021/09/11 03:07:53;;;;;;;13.10;11.50;;;16.00;99.90;;;;;;4914865;29;20024;-76
2021/09/11 03:10:19;;;;;;;14.63;11.93;;;16.00;99.90;;;;;;4917414;29;20028;-76
2021/09/11 03:12:45;;;;;;;12.93;11.63;;;16.00;99.90;;;;;;4915822;29;20023;-77
2021/09/11 03:15:12;;;;;;;15.20;12.38;;;16.00;99.90;;;;;;4916397;29;20440;-77
2021/09/11 03:17:37;;;;;;;17.17;12.10;;;15.90;99.90;;;;;;4915715;29;20477;-76
2021/09/11 03:20:04;;;;;;;16.63;13.73;;;15.90;99.90;;;;;;4914267;29;20035;-77
2021/09/11 03:22:29;;;;;;;20.08;12.95;;;15.90;99.90;;;;;;4915301;29;20036;-78
2021/09/11 03:24:55;;;;;;;15.73;13.38;;;15.90;99.90;;;;;;4916741;29;20024;-76
2021/09/11 03:27:20;;;;;;;16.50;13.13;;;15.80;99.90;;;;;;4915729;29;20032;-78
2021/09/11 03:29:46;;;;;;;15.98;12.90;;;15.80;99.90;;;;;;4916535;29;20365;-77
2021/09/11 03:32:12;;;;;;;17.10;12.30;;;15.80;99.90;;;;;;4915673;29;20075;-77
2021/09/11 03:34:38;;;;;;;13.52;11.95;;;15.80;99.90;;;;;;4915985;29;20119;-77
2021/09/11 03:37:04;;;;;;;15.52;12.57;;;15.80;99.90;;;;;;4914524;29;20063;-77
2021/09/11 03:39:29;;;;;;;15.02;12.27;;;15.70;99.90;;;;;;4916622;29;20043;-76
2021/09/11 03:41:55;;;;;;;12.98;11.63;;;15.70;99.90;;;;;;4915252;29;20035;-76
2021/09/11 03:44:20;;;;;;;20.42;13.02;;;15.70;99.90;;;;;;4914863;29;20044;-76
2021/09/11 03:46:46;;;;;;;14.20;12.73;;;15.70;99.90;;;;;;4914992;29;20052;-77
2021/09/11 03:49:11;;;;;;;17.48;13.30;;;15.60;99.90;;;;;;4915007;29;20068;-78
2021/09/11 03:51:37;;;;;;;14.23;12.82;;;15.70;99.90;;;;;;4915022;29;20075;-77
2021/09/11 03:54:03;;;;;;;17.20;13.98;;;15.60;99.90;;;;;;4914826;29;20043;-79
2021/09/11 03:56:28;;;;;;;15.48;13.05;;;15.60;99.90;;;;;;4915265;29;20020;-77
2021/09/11 03:58:54;;;;;;;15.52;13.77;;;15.60;99.90;;;;;;4914296;29;20397;-79
2021/09/11 04:01:20;;;;;;;15.68;14.07;;;15.60;99.90;;;;;;4915329;29;20031;-79
2021/09/11 04:03:46;;;;;;;21.17;15.85;;;15.70;99.90;;;;;;4914094;29;20028;-77
2021/09/11 04:06:12;;;;;;;18.58;13.57;;;15.60;99.90;;;;;;4914614;29;20024;-78
2021/09/11 04:08:38;;;;;;;16.48;13.73;;;15.60;99.90;;;;;;4915329;29;20024;-76
2021/09/11 04:11:04;;;;;;;17.60;15.50;;;15.60;99.90;;;;;;4915223;29;20075;-76
2021/09/11 04:13:29;;;;;;;17.60;14.88;;;15.60;99.90;;;;;;4914792;29;20035;-76
2021/09/11 04:15:55;;;;;;;18.50;15.23;;;15.60;99.90;;;;;;4914380;29;20035;-76
2021/09/11 04:18:21;;;;;;;19.33;15.15;;;15.70;99.90;;;;;;4914155;29;20035;-76
2021/09/11 04:20:46;;;;;;;17.45;15.18;;;15.60;99.90;;;;;;4914425;29;20024;-77
2021/09/11 04:23:12;;;;;;;22.67;14.25;;;15.60;99.90;;;;;;4914722;29;20038;-76
2021/09/11 04:25:37;;;;;;;22.83;15.25;;;15.70;99.90;;;;;;4914105;29;20385;-80
2021/09/11 04:28:03;;;;;;;19.85;15.32;;;15.70;99.90;;;;;;4915527;29;20384;-78
2021/09/11 04:30:28;;;;;;;24.30;16.15;;;15.80;99.90;;;;;;4914160;29;20024;-77
2021/09/11 04:32:54;;;;;;;20.98;15.73;;;15.90;99.90;;;;;;4913471;29;20047;-77
2021/09/11 04:35:20;;;;;;;18.08;14.68;;;16.00;99.90;;;;;;4914428;29;20035;-77
2021/09/11 04:37:45;;;;;;;24.15;15.25;;;16.10;99.90;;;;;;4914515;29;20024;-78
2021/09/11 04:40:11;;;;;;;17.60;15.05;;;16.10;99.90;;;;;;4913890;29;20119;-78
2021/09/11 04:42:37;;;;;;;20.35;15.95;;;16.20;99.90;;;;;;4916042;29;20036;-78
2021/09/11 04:45:03;;;;;;;17.98;14.52;;;16.20;99.90;;;;;;4915378;29;20075;-78
2021/09/11 04:47:29;;;;;;;18.10;14.73;;;16.20;99.90;;;;;;4913408;29;20131;-79
2021/09/11 04:49:54;;;;;;;18.88;14.80;;;16.20;99.90;;;;;;4913847;29;20123;-78
2021/09/11 04:52:20;;;;;;;15.70;13.88;;;16.30;99.90;;;;;;4914224;29;20020;-78
2021/09/11 04:54:45;;;;;;;22.20;14.55;;;16.30;99.90;;;;;;4913417;29;20032;-78
2021/09/11 04:57:11;;;;;;;18.02;14.30;;;16.30;99.90;;;;;;4915245;29;20020;-79
2021/09/11 04:59:36;;;;;;;22.25;14.18;;;16.30;99.90;;;;;;4915381;29;20036;-77
2021/09/11 05:02:02;;;;;;;18.92;14.77;;;16.30;99.90;;;;;;4913094;29;20079;-78
2021/09/11 05:04:28;;;;;;;17.98;13.35;;;16.40;99.90;;;;;;4914213;29;20020;-77
2021/09/11 05:06:54;;;;;;;15.93;12.88;;;16.40;99.90;;;;;;4913719;29;20123;-78
2021/09/11 05:09:20;;;;;;;16.60;14.50;;;16.30;99.90;;;;;;4913666;29;20024;-79
2021/09/11 05:11:46;;;;;;;16.63;13.82;;;16.40;99.90;;;;;;4913828;29;20031;-77
2021/09/11 05:14:12;;;;;;;18.33;12.98;;;16.40;99.90;;;;;;4918321;29;20032;-77
2021/09/11 05:16:38;;;;;;;17.83;13.25;;;16.40;99.90;;;;;;4928094;29;20035;-78
2021/09/11 05:19:03;;;;;;;18.83;12.48;;;16.40;99.90;;;;;;4915198;29;20033;-76
2021/09/11 05:21:29;;;;;;;15.07;13.55;;;16.40;99.90;;;;;;4913464;29;20024;-80
2021/09/11 05:23:54;;;;;;;13.48;12.05;;;16.40;99.90;;;;;;4913900;29;20024;-81
2021/09/11 05:26:20;;;;;;;14.15;12.75;;;16.40;99.90;;;;;;4915311;29;20035;-78
2021/09/11 05:28:45;;;;;;;14.23;11.95;;;16.40;99.90;;;;;;4920919;29;20563;-78
2021/09/11 05:31:11;;;;;;;14.73;12.75;;;16.50;99.90;;;;;;4929030;29;20428;-78
2021/09/11 05:33:37;;;;;;;16.13;11.98;;;16.50;99.90;;;;;;4932558;29;20061;-77
2021/09/11 05:36:02;;;;;;;14.15;12.35;;;16.50;99.90;;;;;;4931678;29;20028;-77
2021/09/11 05:38:28;;;;;;;15.70;13.35;;;16.60;99.90;;;;;;4932587;29;20028;-77
2021/09/11 05:40:54;;;;;;;15.32;11.68;;;16.60;99.90;;;;;;4933703;29;20503;-78
2021/09/11 05:43:19;;;;;;;11.80;10.63;;;16.70;99.90;;;;;;4935364;29;20063;-79
2021/09/11 05:45:45;;;;;;;13.82;12.32;;;16.70;99.90;;;;;;4936326;29;20036;-78
2021/09/11 05:48:10;;;;;;;14.73;11.85;;;16.80;99.90;;;;;;4937395;29;20066;-78
2021/09/11 05:50:36;;;;;;;13.32;11.82;;;16.90;99.90;;;;;;4931548;29;20032;-79
2021/09/11 05:53:01;;;;;;;12.75;10.90;;;16.90;99.90;;;;;;4926584;29;20527;-78
2021/09/11 05:55:27;;;;;;;17.10;11.52;;;17.00;99.90;;;;;;4924514;29;20035;-78
2021/09/11 05:57:53;;;;;;;15.07;11.13;;;17.00;99.90;;;;;;4929306;29;20079;-78
2021/09/11 06:00:19;;;;;;;13.50;10.30;;;17.00;99.90;;;;;;4930360;29;20126;-78
2021/09/11 06:02:44;;;;;;;14.40;10.73;;;17.10;99.90;;;;;;4928750;29;20484;-78
2021/09/11 06:05:10;;;;;;;11.65;10.32;;;17.10;99.90;;;;;;4922480;29;20043;-78
2021/09/11 06:07:37;;;;;;;14.18;10.70;;;17.20;99.90;;;;;;4918323;29;20035;-79
2021/09/11 06:10:03;;;;;;;12.80;9.68;;;17.20;99.90;;;;;;4918042;29;20079;-79
2021/09/11 06:12:29;;;;;;;14.00;9.98;;;17.30;99.90;;;;;;4920499;29;20016;-79
2021/09/11 06:14:55;;;;;;;12.10;9.57;;;17.30;99.90;;;;;;4933969;29;20618;-79
2021/09/11 06:17:20;;;;;;;13.15;9.50;;;17.40;99.90;;;;;;4919837;29;20040;-80
2021/09/11 06:19:46;;;;;;;15.23;10.10;;;17.40;99.90;;;;;;4927583;29;20039;-83
2021/09/11 06:22:13;;;;;;;12.35;9.38;;;17.50;99.90;;;;;;4916646;29;20016;-79
2021/09/11 06:24:39;;;;;;;18.77;10.43;;;17.40;99.90;;;;;;4923807;29;20726;-78
2021/09/11 06:27:06;;;;;;;11.93;9.40;;;17.40;99.90;;;;;;4927213;29;20504;-79
2021/09/11 06:29:31;;;;;;;14.57;9.82;;;17.40;99.90;;;;;;4930906;29;20119;-80
2021/09/11 06:31:57;;;;;;;13.05;8.98;;;17.40;99.90;;;;;;4926446;29;20122;-80
2021/09/11 06:34:23;;;;;;;11.55;9.27;;;17.40;99.90;;;;;;4915241;29;20052;-80
2021/09/11 06:36:48;;;;;;;15.65;10.23;;;17.40;99.90;;;;;;4926512;29;20048;-79
2021/09/11 06:39:14;;;;;;;10.55;9.45;;;17.40;99.90;;;;;;4925183;29;20023;-80
2021/09/11 06:41:40;;;;;;;10.43;8.80;;;17.40;99.90;;;;;;4930450;29;20074;-79
2021/09/11 06:44:06;;;;;;;13.57;9.13;;;17.50;99.90;;;;;;4934768;29;20066;-79
2021/09/11 06:46:32;;;;;;;12.55;8.48;;;17.50;99.90;;;;;;4934548;29;20072;-73
2021/09/11 06:48:57;;;;;;;13.35;8.70;;;17.60;99.90;;;;;;4935950;29;20480;-73
2021/09/11 06:51:23;;;;;;;13.57;9.48;;;17.70;99.90;;;;;;4936102;29;20023;-77
2021/09/11 06:53:49;;;;;;;11.38;8.80;;;17.70;99.90;;;;;;4934710;29;20063;-79
2021/09/11 06:56:16;;;;;;;9.65;8.75;;;17.90;99.90;;;;;;4936291;29;20046;-78
2021/09/11 06:58:41;;;;;;;15.35;8.60;;;17.90;99.90;;;;;;4934716;29;20031;-77
2021/09/11 07:01:07;;;;;;;12.00;8.45;;;17.90;99.90;;;;;;4932769;29;20495;-77
2021/09/11 07:03:33;;;;;;;11.88;9.18;;;17.90;99.90;;;;;;4917559;29;20054;-74
2021/09/11 07:06:03;;;;;;;13.07;9.23;;;18.00;99.90;;;;;;4923760;29;20020;-72
2021/09/11 07:08:28;;;;;;;11.85;9.30;;;18.10;99.90;;;;;;4924083;29;20063;-75
2021/09/11 07:10:54;;;;;;;13.27;8.90;;;18.10;99.90;;;;;;4925187;29;20043;-74
2021/09/11 07:13:19;;;;;;;13.32;8.65;;;18.10;99.90;;;;;;4926500;29;20039;-74
2021/09/11 07:15:45;;;;;;;13.43;9.23;;;18.20;99.90;;;;;;4923462;29;20461;-76
2021/09/11 07:18:11;;;;;;;11.07;9.18;;;18.30;99.90;;;;;;4927348;29;20436;-77
2021/09/11 07:20:36;;;;;;;13.25;8.40;;;18.30;99.90;;;;;;4925101;29;20489;-82
2021/09/11 07:23:02;;;;;;;11.45;8.85;;;18.40;99.90;;;;;;4924386;29;20372;-80
2021/09/11 07:25:27;;;;;;;10.68;8.20;;;18.50;99.90;;;;;;4925860;29;20047;-78
2021/09/11 07:27:53;;;;;;;9.07;8.15;;;18.60;99.90;;;;;;4921867;29;20389;-79
2021/09/11 07:30:19;;;;;;;11.40;8.70;;;18.60;99.90;;;;;;4915970;29;20047;-79
2021/09/11 07:32:44;;;;;;;9.82;8.75;;;18.60;99.90;;;;;;4915571;29;20036;-79
2021/09/11 07:35:10;;;;;;;10.43;9.07;;;18.70;99.90;;;;;;4914928;29;20488;-79
2021/09/11 07:37:36;;;;;;;10.98;8.70;;;18.90;99.90;;;;;;4920101;29;20036;-79
2021/09/11 07:40:01;;;;;;;11.63;8.85;;;19.00;99.90;;;;;;4933218;29;20034;-78
2021/09/11 07:42:27;;;;;;;11.88;8.82;;;19.10;99.90;;;;;;4925630;29;20115;-78
2021/09/11 07:44:52;;;;;;;12.02;9.80;;;19.10;99.90;;;;;;4927675;29;20491;-78
2021/09/11 07:47:18;;;;;;;10.35;9.25;;;19.10;99.90;;;;;;4922923;29;20055;-79
2021/09/11 07:49:44;;;;;;;12.63;9.35;;;19.20;99.90;;;;;;4933580;29;20084;-78
2021/09/11 07:52:10;;;;;;;12.68;9.93;;;19.40;99.90;;;;;;4926803;29;20382;-79
2021/09/11 07:54:36;;;;;;;11.45;10.25;;;19.60;99.90;;;;;;4915043;29;20065;-79
2021/09/11 07:57:02;;;;;;;14.40;10.07;;;19.70;99.90;;;;;;4914145;29;20024;-81
2021/09/11 07:59:28;;;;;;;9.95;9.05;;;19.60;99.90;;;;;;4915003;29;20091;-80
2021/09/11 08:01:53;;;;;;;11.88;9.88;;;19.60;99.90;;;;;;4915001;29;20020;-81
2021/09/11 08:04:19;;;;;;;16.48;9.65;;;19.60;99.90;;;;;;4914172;29;20083;-80
2021/09/11 08:06:45;;;;;;;10.10;9.15;;;19.70;99.90;;;;;;4914573;29;20393;-79
2021/09/11 08:09:11;;;;;;;10.35;9.13;;;19.80;99.90;;;;;;4916328;29;20040;-80
2021/09/11 08:11:36;;;;;;;10.35;9.27;;;19.90;99.90;;;;;;4914289;29;20028;-78
2021/09/11 08:14:02;;;;;;;12.00;9.27;;;20.00;99.90;;;;;;4914695;29;20070;-84
2021/09/11 08:16:28;;;;;;;11.82;10.02;;;19.90;99.90;;;;;;4926605;29;20376;-79
2021/09/11 08:18:54;;;;;;;12.38;10.38;;;19.90;99.90;;;;;;4932881;29;20101;-78
2021/09/11 08:21:20;;;;;;;11.13;9.98;;;19.80;99.90;;;;;;4933944;29;20468;-79
2021/09/11 08:23:46;;;;;;;15.07;10.32;;;19.80;99.90;;;;;;4933786;29;20031;-78
2021/09/11 08:26:12;;;;;;;15.68;10.18;;;19.80;99.90;;;;;;4930236;29;20063;-77
2021/09/11 08:28:37;;;;;;;10.65;9.55;;;19.90;99.90;;;;;;4917983;29;20454;-79
2021/09/11 08:31:03;;;;;;;11.88;10.55;;;20.00;99.90;;;;;;4913617;29;20027;-78
2021/09/11 08:33:29;;;;;;;11.38;10.15;;;20.20;99.90;;;;;;4924537;29;20079;-78
2021/09/11 08:35:56;;;;;;;12.10;10.88;;;20.30;99.90;;;;;;4932837;29;20019;-77
2021/09/11 08:38:21;;;;;;;13.45;10.80;;;20.40;99.90;;;;;;4933052;29;20027;-78
2021/09/11 08:40:47;;;;;;;11.70;10.60;;;20.40;99.90;;;;;;4926873;29;20042;-77
2021/09/11 08:43:17;;;;;;;12.15;10.95;;;20.40;99.90;;;;;;4922967;29;20027;-78
2021/09/11 08:45:43;;;;;;;15.98;10.05;;;20.40;99.90;;;;;;4917414;29;20040;-78
2021/09/11 08:48:09;;;;;;;11.15;9.95;;;20.40;99.90;;;;;;4914380;29;20032;-78
2021/09/11 08:50:35;;;;;;;14.05;10.98;;;20.50;99.90;;;;;;4914443;29;20052;-79
2021/09/11 08:53:01;;;;;;;11.65;10.27;;;20.40;99.90;;;;;;4926269;29;20043;-78
2021/09/11 08:55:27;;;;;;;14.10;10.90;;;20.30;99.90;;;;;;4933495;29;20512;-78
2021/09/11 08:58:07;;;;;;;12.05;10.85;;;20.20;99.90;;;;;;4932649;29;20460;-77
2021/09/11 09:00:41;;;;;;;12.68;11.48;;;20.20;99.90;;;;;;4932911;29;20028;-77
2021/09/11 09:03:30;;;;;;;13.27;11.43;;;20.20;99.90;;;;;;4933070;29;20023;-74
2021/09/11 09:06:18;;;;;;;12.68;11.38;;;20.20;99.90;;;;;;4932742;29;20028;-79
2021/09/11 09:08:46;;;;;;;12.00;10.63;;;20.20;99.90;;;;;;4914353;29;20032;-78
2021/09/11 09:11:20;;;;;;;14.50;11.77;;;20.20;99.90;;;;;;4915667;29;20028;-78
2021/09/11 09:13:58;;;;;;;13.27;11.50;;;20.30;99.90;;;;;;4913610;29;20051;-81
2021/09/11 09:16:26;;;;;;;16.58;11.95;;;20.30;99.90;;;;;;4915265;29;20028;-81
2021/09/11 09:18:52;;;;;;;13.63;11.00;;;20.50;99.90;;;;;;4917725;29;20044;-79
2021/09/11 09:21:20;;;;;;;14.30;11.65;;;20.50;99.90;;;;;;4919616;29;20016;-78
2021/09/11 09:23:57;;;;;;;12.63;11.32;;;20.50;99.90;;;;;;4938018;29;20536;-78
2021/09/11 09:26:24;;;;;;;12.02;10.73;;;20.50;99.90;;;;;;4925478;29;20032;-77
2021/09/11 09:29:08;;;;;;;12.77;11.07;;;20.60;99.90;;;;;;4918383;29;20503;-77
2021/09/11 09:31:35;;;;;;;12.77;11.45;;;20.60;99.90;;;;;;4918733;29;20028;-78
2021/09/11 09:34:00;;;;;;;13.85;11.95;;;20.50;99.90;;;;;;4917615;29;20036;-78
2021/09/11 09:36:33;;;;;;;12.63;11.30;;;20.50;99.90;;;;;;4917126;29;20039;-79
2021/09/11 09:39:00;;;;;;;12.65;11.35;;;20.40;99.90;;;;;;4917577;29;20028;-78
2021/09/11 09:41:26;;;;;;;14.82;11.85;;;20.40;99.90;;;;;;4929027;29;20063;-78
2021/09/11 09:43:51;;;;;;;15.35;12.25;;;20.30;99.90;;;;;;4934836;29;20051;-78
2021/09/11 09:46:19;;;;;;;18.00;12.82;;;20.40;99.90;;;;;;4936336;29;20048;-77
2021/09/11 09:48:46;;;;;;;13.48;12.18;;;20.40;99.90;;;;;;4928596;29;20038;-78
2021/09/11 09:51:17;;;;;;;16.50;13.85;;;20.50;99.90;;;;;;4919082;29;20020;-77
2021/09/11 09:53:45;;;;;;;14.98;12.88;;;20.50;99.90;;;;;;4926087;29;20038;-78
2021/09/11 09:56:11;;;;;;;16.67;14.48;;;20.50;99.90;;;;;;4934690;29;20443;-79
2021/09/11 09:58:37;;;;;;;15.32;13.82;;;20.50;99.90;;;;;;4921383;29;20035;-78
2021/09/11 10:01:04;;;;;;;17.00;15.27;;;20.60;99.90;;;;;;4936658;29;20047;-78
2021/09/11 10:03:30;;;;;;;15.73;14.23;;;20.70;99.90;;;;;;4935568;29;20020;-77
2021/09/11 10:06:03;;;;;;;16.02;14.38;;;20.80;99.90;;;;;;4935205;29;20027;-78
2021/09/11 10:08:30;;;;;;;17.17;14.48;;;20.80;99.90;;;;;;4926633;29;20432;-77
2021/09/11 10:10:56;;;;;;;16.50;14.80;;;20.80;99.90;;;;;;4924160;29;20119;-78
2021/09/11 10:13:23;;;;;;;19.63;15.27;;;20.70;99.90;;;;;;4927790;29;20036;-78
2021/09/11 10:16:06;;;;;;;17.85;15.95;;;20.70;99.90;;;;;;4925916;29;20024;-78
2021/09/11 10:18:34;;;;;;;17.55;15.50;;;20.70;99.90;;;;;;4929949;29;20034;-77
2021/09/11 10:21:27;;;;;;;17.65;15.55;;;20.70;99.90;;;;;;4919197;29;20485;-78
2021/09/11 10:23:56;;;;;;;19.20;17.27;;;20.90;99.90;;;;;;4934691;29;20094;-78
2021/09/11 10:26:53;;;;;;;19.17;16.58;;;21.00;99.90;;;;;;4935589;29;20115;-77
2021/09/11 10:29:37;;;;;;;21.13;17.00;;;21.00;99.90;;;;;;4920522;29;20091;-77
2021/09/11 10:32:11;;;;;;;19.60;16.85;;;20.90;99.90;;;;;;4925275;29;20072;-82
2021/09/11 10:34:59;;;;;;;22.20;18.23;;;20.80;99.90;;;;;;4931619;29;20122;-77
2021/09/11 10:37:46;;;;;;;18.13;16.38;;;20.70;99.90;;;;;;4917916;29;20032;-75
2021/09/11 10:40:28;;;;;;;20.65;17.02;;;20.70;99.90;;;;;;4927666;29;20139;-76
2021/09/11 10:43:24;;;;;;;18.63;16.65;;;20.60;99.90;;;;;;4918323;29;20061;-76
2021/09/11 10:46:06;;;;;;;19.67;17.40;;;20.60;99.90;;;;;;4924917;29;20046;-76
2021/09/11 10:48:44;;;;;;;19.98;17.45;;;20.50;99.90;;;;;;4935664;29;20148;-77
2021/09/11 10:51:23;;;;;;;18.85;16.90;;;20.60;99.90;;;;;;4934724;29;20047;-75
2021/09/11 10:54:07;;;;;;;18.55;15.90;;;20.60;99.90;;;;;;4934948;29;20078;-77
2021/09/11 10:56:51;;;;;;;17.38;15.00;;;20.70;99.90;;;;;;4916862;29;20052;-78
2021/09/11 10:59:17;;;;;;;17.05;15.38;;;20.70;99.90;;;;;;4920112;29;20082;-77
2021/09/11 11:02:17;;;;;;;18.30;16.30;;;20.70;99.90;;;;;;4933309;29;20031;-77
2021/09/11 11:04:48;;;;;;;16.88;15.02;;;20.80;99.90;;;;;;4935246;29;20091;-78
2021/09/11 11:07:15;;;;;;;;;;;20.90;99.90;;;;;;4935932;29;20119;-78
2021/09/11 11:09:43;;;;;;;17.02;15.32;;;21.00;99.90;;;;;;4935071;29;19910;-79
2021/09/11 11:12:10;;;;;;;19.25;17.35;;;21.10;99.90;;;;;;4915901;29;20024;-81
2021/09/11 11:14:40;;;;;;;18.77;16.75;;;21.10;99.90;;;;;;4917452;29;20370;-77
2021/09/11 11:17:06;;;;;;;20.92;17.75;;;21.10;99.90;;;;;;4915781;29;20024;-76
2021/09/11 11:19:33;;;;;;;21.00;18.90;;;21.10;99.90;;;;;;4916546;29;20035;-77
2021/09/11 11:22:07;;;;;;;18.73;16.88;;;21.20;99.90;;;;;;4914932;29;20075;-79
2021/09/11 11:24:39;;;;;;;18.40;16.70;;;21.70;99.90;;;;;;4925601;29;20100;-80
2021/09/11 11:27:07;;;;;;;17.83;16.08;;;22.20;99.90;;;;;;4932801;29;20036;-70
2021/09/11 11:29:33;;;;;;;18.95;15.57;;;22.50;99.90;;;;;;4934407;29;20031;-68
2021/09/11 11:32:01;;;;;;;18.45;16.65;;;22.60;99.90;;;;;;4929315;29;20027;-70
2021/09/11 11:34:27;;;;;;;17.75;16.05;;;22.80;99.90;;;;;;4929766;29;20510;-73
2021/09/11 11:37:01;;;;;;;18.13;16.33;;;22.80;99.90;;;;;;4933291;29;20118;-72
2021/09/11 11:39:39;;;;;;;19.77;17.67;;;22.60;99.90;;;;;;4918272;29;20024;-76
2021/09/11 11:42:18;;;;;;;17.90;16.17;;;22.40;99.90;;;;;;4920215;29;20028;-73
2021/09/11 11:44:48;;;;;;;18.33;16.50;;;22.50;99.90;;;;;;4915597;29;20028;-74
2021/09/11 11:47:51;;;;;;;17.38;15.65;;;22.70;99.90;;;;;;4914033;29;20044;-79
2021/09/11 11:50:31;;;;;;;17.65;15.90;;;22.80;99.90;;;;;;4923697;29;20032;-72
2021/09/11 11:53:11;;;;;;;17.40;15.23;;;22.80;99.90;;;;;;4916137;29;20096;-84
2021/09/11 11:55:45;;;;;;;17.70;16.00;;;22.90;99.90;;;;;;4916156;29;20772;-72
2021/09/11 11:58:14;;;;;;;18.73;16.77;;;22.90;99.90;;;;;;4923629;29;20051;-75
2021/09/11 12:00:49;;;;;;;19.35;17.50;;;22.90;99.90;;;;;;4935315;29;20038;-71
2021/09/11 12:03:40;;;;;;;18.05;16.38;;;22.90;99.90;;;;;;4932731;29;20036;-73
2021/09/11 12:06:16;;;;;;;16.92;15.32;;;22.90;99.90;;;;;;4913867;29;20060;-80
2021/09/11 12:08:42;;;;;;;14.73;13.30;;;23.00;99.90;;;;;;4926002;29;20027;-74
2021/09/11 12:11:27;;;;;;;16.00;14.48;;;23.10;99.90;;;;;;4915808;29;20032;-72
2021/09/11 12:14:04;;;;;;;15.95;14.38;;;23.30;99.90;;;;;;4914130;29;20028;-72
2021/09/11 12:16:31;;;;;;;16.30;14.60;;;23.30;99.90;;;;;;4914653;29;20103;-72
2021/09/11 12:19:13;;;;;;;15.65;14.10;;;23.10;99.90;;;;;;4915612;29;20039;-71
2021/09/11 12:21:39;;;;;;;15.38;13.90;;;22.70;99.90;;;;;;4922418;29;20028;-72
2021/09/11 12:24:05;;;;;;;16.88;15.27;;;22.50;99.90;;;;;;4937876;28;20361;-73
2021/09/11 12:26:32;;;;;;;16.33;14.63;;;22.30;99.90;;;;;;4932091;29;20495;-71
2021/09/11 12:29:16;;;;;;;11.25;10.15;;;22.00;99.90;;;;;;4916938;29;20433;-72
2021/09/11 12:31:53;;;;;;;8.18;7.43;;;21.60;99.90;;;;;;4914708;29;20623;-72